sensor_id;sensor_type;location;lat;lon;timestamp;temperature;humidity
44435;DHT22;30138;20.964;105.830;2022-12-26T00:05:11;22.10;83.80
44435;DHT22;30138;20.964;105.830;2022-12-26T00:10:18;22.10;83.70
44435;DHT22;30138;20.964;105.830;2022-12-26T00:15:26;22.10;83.70
44435;DHT22;30138;20.964;105.830;2022-12-26T00:20:38;22.00;83.60
44435;DHT22;30138;20.964;105.830;2022-12-26T00:25:49;22.10;83.70
44435;DHT22;30138;20.964;105.830;2022-12-26T00:30:58;22.00;83.90
44435;DHT22;30138;20.964;105.830;2022-12-26T00:36:10;22.00;83.60
44435;DHT22;30138;20.964;105.830;2022-12-26T00:41:21;22.00;83.80
44435;DHT22;30138;20.964;105.830;2022-12-26T00:46:28;22.00;83.90
44435;DHT22;30138;20.964;105.830;2022-12-26T00:51:38;21.90;83.90
44435;DHT22;30138;20.964;105.830;2022-12-26T00:56:46;22.00;84.00
44435;DHT22;30138;20.964;105.830;2022-12-26T01:01:55;21.90;83.90
44435;DHT22;30138;20.964;105.830;2022-12-26T01:07:32;21.90;84.70
44435;DHT22;30138;20.964;105.830;2022-12-26T01:12:42;22.00;84.00
44435;DHT22;30138;20.964;105.830;2022-12-26T01:17:51;21.90;84.00
44435;DHT22;30138;20.964;105.830;2022-12-26T01:23:01;21.90;84.10
44435;DHT22;30138;20.964;105.830;2022-12-26T01:28:09;21.90;84.10
44435;DHT22;30138;20.964;105.830;2022-12-26T01:33:20;21.90;84.10
44435;DHT22;30138;20.964;105.830;2022-12-26T01:38:30;21.90;84.20
44435;DHT22;30138;20.964;105.830;2022-12-26T01:43:54;21.90;84.20
44435;DHT22;30138;20.964;105.830;2022-12-26T01:49:12;21.90;84.20
44435;DHT22;30138;20.964;105.830;2022-12-26T01:54:38;21.90;84.20
44435;DHT22;30138;20.964;105.830;2022-12-26T01:59:51;21.90;84.20
44435;DHT22;30138;20.964;105.830;2022-12-26T02:05:05;21.90;84.20
44435;DHT22;30138;20.964;105.830;2022-12-26T02:10:34;21.90;84.20
44435;DHT22;30138;20.964;105.830;2022-12-26T02:15:49;21.90;84.20
44435;DHT22;30138;20.964;105.830;2022-12-26T02:21:02;21.90;84.20
44435;DHT22;30138;20.964;105.830;2022-12-26T02:26:59;21.90;84.20
44435;DHT22;30138;20.964;105.830;2022-12-26T02:32:23;21.90;84.20
44435;DHT22;30138;20.964;105.830;2022-12-26T02:38:00;21.90;84.30
44435;DHT22;30138;20.964;105.830;2022-12-26T02:43:48;21.90;84.40
44435;DHT22;30138;20.964;105.830;2022-12-26T02:49:35;21.90;84.30
44435;DHT22;30138;20.964;105.830;2022-12-26T02:55:06;21.90;84.30
44435;DHT22;30138;20.964;105.830;2022-12-26T03:00:37;21.90;84.30
44435;DHT22;30138;20.964;105.830;2022-12-26T03:06:06;21.90;84.40
44435;DHT22;30138;20.964;105.830;2022-12-26T03:11:35;21.90;85.10
44435;DHT22;30138;20.964;105.830;2022-12-26T03:17:04;21.90;84.40
44435;DHT22;30138;20.964;105.830;2022-12-26T03:22:31;21.90;84.50
44435;DHT22;30138;20.964;105.830;2022-12-26T03:27:41;21.90;84.50
44435;DHT22;30138;20.964;105.830;2022-12-26T03:32:50;21.90;84.60
44435;DHT22;30138;20.964;105.830;2022-12-26T03:38:49;21.90;85.00
44435;DHT22;30138;20.964;105.830;2022-12-26T03:44:10;21.90;84.70
44435;DHT22;30138;20.964;105.830;2022-12-26T03:49:44;22.00;84.70
44435;DHT22;30138;20.964;105.830;2022-12-26T03:55:17;22.00;84.80
44435;DHT22;30138;20.964;105.830;2022-12-26T04:00:45;22.00;84.80
44435;DHT22;30138;20.964;105.830;2022-12-26T04:06:19;22.00;84.90
44435;DHT22;30138;20.964;105.830;2022-12-26T04:11:50;21.90;84.90
44435;DHT22;30138;20.964;105.830;2022-12-26T04:17:22;22.00;85.00
44435;DHT22;30138;20.964;105.830;2022-12-26T04:22:50;22.00;85.10
44435;DHT22;30138;20.964;105.830;2022-12-26T04:28:44;22.00;85.10
44435;DHT22;30138;20.964;105.830;2022-12-26T04:34:11;22.00;85.10
44435;DHT22;30138;20.964;105.830;2022-12-26T04:39:55;22.00;85.10
44435;DHT22;30138;20.964;105.830;2022-12-26T04:45:36;22.00;85.10
44435;DHT22;30138;20.964;105.830;2022-12-26T04:50:57;22.00;85.10
44435;DHT22;30138;20.964;105.830;2022-12-26T04:56:05;22.10;85.20
44435;DHT22;30138;20.964;105.830;2022-12-26T05:01:30;22.10;85.10
44435;DHT22;30138;20.964;105.830;2022-12-26T05:06:55;22.20;85.40
44435;DHT22;30138;20.964;105.830;2022-12-26T05:12:36;22.10;85.60
44435;DHT22;30138;20.964;105.830;2022-12-26T05:17:46;22.10;85.70
44435;DHT22;30138;20.964;105.830;2022-12-26T05:23:16;22.10;85.80
44435;DHT22;30138;20.964;105.830;2022-12-26T05:28:41;22.10;85.70
44435;DHT22;30138;20.964;105.830;2022-12-26T05:33:57;22.10;85.70
44435;DHT22;30138;20.964;105.830;2022-12-26T05:39:27;22.20;85.50
44435;DHT22;30138;20.964;105.830;2022-12-26T05:44:36;22.30;85.90
44435;DHT22;30138;20.964;105.830;2022-12-26T05:49:46;22.30;85.30
44435;DHT22;30138;20.964;105.830;2022-12-26T05:54:53;22.30;85.30
44435;DHT22;30138;20.964;105.830;2022-12-26T06:00:03;22.30;85.10
44435;DHT22;30138;20.964;105.830;2022-12-26T06:05:27;22.40;85.70
44435;DHT22;30138;20.964;105.830;2022-12-26T06:10:34;22.40;84.90
44435;DHT22;30138;20.964;105.830;2022-12-26T06:15:44;22.40;85.20
44435;DHT22;30138;20.964;105.830;2022-12-26T06:21:01;22.40;85.20
44435;DHT22;30138;20.964;105.830;2022-12-26T06:26:10;22.50;85.20
44435;DHT22;30138;20.964;105.830;2022-12-26T06:31:22;22.50;85.00
44435;DHT22;30138;20.964;105.830;2022-12-26T06:36:44;22.50;84.80
44435;DHT22;30138;20.964;105.830;2022-12-26T06:42:02;22.50;84.60
44435;DHT22;30138;20.964;105.830;2022-12-26T06:47:12;22.50;84.60
44435;DHT22;30138;20.964;105.830;2022-12-26T06:52:21;22.50;84.50
44435;DHT22;30138;20.964;105.830;2022-12-26T06:57:28;22.50;84.90
44435;DHT22;30138;20.964;105.830;2022-12-26T07:02:38;22.50;85.30
44435;DHT22;30138;20.964;105.830;2022-12-26T07:07:52;22.50;85.70
44435;DHT22;30138;20.964;105.830;2022-12-26T07:13:00;22.40;85.90
44435;DHT22;30138;20.964;105.830;2022-12-26T07:18:07;22.40;85.90
44435;DHT22;30138;20.964;105.830;2022-12-26T07:23:34;22.40;85.80
44435;DHT22;30138;20.964;105.830;2022-12-26T07:28:45;22.40;85.80
44435;DHT22;30138;20.964;105.830;2022-12-26T07:34:00;22.40;86.00
44435;DHT22;30138;20.964;105.830;2022-12-26T07:39:20;22.40;86.10
44435;DHT22;30138;20.964;105.830;2022-12-26T07:44:30;22.40;86.20
44435;DHT22;30138;20.964;105.830;2022-12-26T07:49:40;22.40;86.30
44435;DHT22;30138;20.964;105.830;2022-12-26T07:54:52;22.40;86.30
44435;DHT22;30138;20.964;105.830;2022-12-26T08:00:00;22.40;86.20
44435;DHT22;30138;20.964;105.830;2022-12-26T08:05:24;22.40;86.30
44435;DHT22;30138;20.964;105.830;2022-12-26T08:10:48;22.40;86.30
44435;DHT22;30138;20.964;105.830;2022-12-26T08:16:09;22.40;86.40
44435;DHT22;30138;20.964;105.830;2022-12-26T08:21:18;22.40;86.70
44435;DHT22;30138;20.964;105.830;2022-12-26T08:26:28;22.40;86.80
44435;DHT22;30138;20.964;105.830;2022-12-26T08:31:35;22.40;86.80
44435;DHT22;30138;20.964;105.830;2022-12-26T08:36:46;22.40;86.90
44435;DHT22;30138;20.964;105.830;2022-12-26T08:42:04;22.30;86.90
44435;DHT22;30138;20.964;105.830;2022-12-26T08:47:13;22.30;87.00
44435;DHT22;30138;20.964;105.830;2022-12-26T08:52:20;22.30;87.20
44435;DHT22;30138;20.964;105.830;2022-12-26T08:57:31;22.30;87.20
44435;DHT22;30138;20.964;105.830;2022-12-26T09:02:39;22.30;87.20
44435;DHT22;30138;20.964;105.830;2022-12-26T09:07:47;22.30;87.20
44435;DHT22;30138;20.964;105.830;2022-12-26T09:12:57;22.30;87.40
44435;DHT22;30138;20.964;105.830;2022-12-26T09:18:21;22.30;87.40
44435;DHT22;30138;20.964;105.830;2022-12-26T09:23:28;22.30;87.50
44435;DHT22;30138;20.964;105.830;2022-12-26T09:28:39;22.30;87.80
44435;DHT22;30138;20.964;105.830;2022-12-26T09:33:48;22.30;87.60
44435;DHT22;30138;20.964;105.830;2022-12-26T09:38:58;22.30;87.70
44435;DHT22;30138;20.964;105.830;2022-12-26T09:44:16;22.30;87.70
44435;DHT22;30138;20.964;105.830;2022-12-26T09:49:31;22.30;87.80
44435;DHT22;30138;20.964;105.830;2022-12-26T09:54:48;22.30;87.60
44435;DHT22;30138;20.964;105.830;2022-12-26T10:00:06;22.30;87.80
44435;DHT22;30138;20.964;105.830;2022-12-26T10:05:17;22.30;87.80
44435;DHT22;30138;20.964;105.830;2022-12-26T10:10:33;22.30;87.80
44435;DHT22;30138;20.964;105.830;2022-12-26T10:15:48;22.30;87.80
44435;DHT22;30138;20.964;105.830;2022-12-26T10:21:21;22.30;87.90
44435;DHT22;30138;20.964;105.830;2022-12-26T10:26:42;22.30;87.90
44435;DHT22;30138;20.964;105.830;2022-12-26T10:31:57;22.30;87.90
44435;DHT22;30138;20.964;105.830;2022-12-26T10:37:13;22.20;87.90
44435;DHT22;30138;20.964;105.830;2022-12-26T10:42:32;22.30;88.10
44435;DHT22;30138;20.964;105.830;2022-12-26T10:47:54;22.30;88.20
44435;DHT22;30138;20.964;105.830;2022-12-26T10:53:05;22.30;88.20
44435;DHT22;30138;20.964;105.830;2022-12-26T10:58:18;22.30;88.30
44435;DHT22;30138;20.964;105.830;2022-12-26T11:03:55;22.30;88.30
44435;DHT22;30138;20.964;105.830;2022-12-26T11:09:04;22.30;88.40
44435;DHT22;30138;20.964;105.830;2022-12-26T11:14:39;22.20;88.50
44435;DHT22;30138;20.964;105.830;2022-12-26T11:20:08;22.20;88.70
44435;DHT22;30138;20.964;105.830;2022-12-26T11:25:32;22.20;88.80
44435;DHT22;30138;20.964;105.830;2022-12-26T11:30:48;22.20;88.80
44435;DHT22;30138;20.964;105.830;2022-12-26T11:36:19;22.20;88.70
44435;DHT22;30138;20.964;105.830;2022-12-26T11:41:37;22.20;88.80
44435;DHT22;30138;20.964;105.830;2022-12-26T11:46:50;22.20;88.90
44435;DHT22;30138;20.964;105.830;2022-12-26T11:52:02;22.20;89.00
44435;DHT22;30138;20.964;105.830;2022-12-26T11:57:42;22.20;88.90
44435;DHT22;30138;20.964;105.830;2022-12-26T12:03:07;22.20;89.00
44435;DHT22;30138;20.964;105.830;2022-12-26T12:08:34;22.20;89.10
44435;DHT22;30138;20.964;105.830;2022-12-26T12:20:01;22.20;89.20
44435;DHT22;30138;20.964;105.830;2022-12-26T12:25:48;22.20;89.30
44435;DHT22;30138;20.964;105.830;2022-12-26T12:31:06;22.20;89.40
44435;DHT22;30138;20.964;105.830;2022-12-26T12:36:33;22.20;89.50
44435;DHT22;30138;20.964;105.830;2022-12-26T12:42:04;22.20;90.10
44435;DHT22;30138;20.964;105.830;2022-12-26T12:47:26;22.20;89.50
44435;DHT22;30138;20.964;105.830;2022-12-26T12:52:54;22.20;89.60
44435;DHT22;30138;20.964;105.830;2022-12-26T12:58:19;22.20;89.60
44435;DHT22;30138;20.964;105.830;2022-12-26T13:03:41;22.10;89.60
44435;DHT22;30138;20.964;105.830;2022-12-26T13:09:00;22.10;89.90
44435;DHT22;30138;20.964;105.830;2022-12-26T13:14:21;22.10;90.00
44435;DHT22;30138;20.964;105.830;2022-12-26T13:19:50;22.10;89.70
44435;DHT22;30138;20.964;105.830;2022-12-26T13:25:05;22.10;90.00
44435;DHT22;30138;20.964;105.830;2022-12-26T13:30:22;22.10;90.00
44435;DHT22;30138;20.964;105.830;2022-12-26T13:35:55;22.10;90.00
44435;DHT22;30138;20.964;105.830;2022-12-26T13:41:21;22.10;90.00
44435;DHT22;30138;20.964;105.830;2022-12-26T13:46:56;22.10;90.10
44435;DHT22;30138;20.964;105.830;2022-12-26T13:52:33;22.10;90.20
44435;DHT22;30138;20.964;105.830;2022-12-26T13:57:42;22.10;90.20
44435;DHT22;30138;20.964;105.830;2022-12-26T14:03:33;22.10;90.20
44435;DHT22;30138;20.964;105.830;2022-12-26T14:09:30;22.10;90.20
44435;DHT22;30138;20.964;105.830;2022-12-26T14:15:07;22.10;90.40
44435;DHT22;30138;20.964;105.830;2022-12-26T14:20:41;22.10;90.40
44435;DHT22;30138;20.964;105.830;2022-12-26T14:26:22;22.00;90.50
44435;DHT22;30138;20.964;105.830;2022-12-26T14:31:42;22.00;90.60
44435;DHT22;30138;20.964;105.830;2022-12-26T14:36:59;22.00;90.60
44435;DHT22;30138;20.964;105.830;2022-12-26T14:42:25;22.00;90.70
44435;DHT22;30138;20.964;105.830;2022-12-26T14:47:50;22.10;90.70
44435;DHT22;30138;20.964;105.830;2022-12-26T14:58:45;22.00;90.70
44435;DHT22;30138;20.964;105.830;2022-12-26T15:03:58;22.00;90.80
44435;DHT22;30138;20.964;105.830;2022-12-26T15:09:23;22.00;90.90
44435;DHT22;30138;20.964;105.830;2022-12-26T15:15:23;22.00;91.00
44435;DHT22;30138;20.964;105.830;2022-12-26T15:21:06;22.00;91.00
44435;DHT22;30138;20.964;105.830;2022-12-26T15:26:58;22.00;91.20
44435;DHT22;30138;20.964;105.830;2022-12-26T15:32:18;22.00;91.20
44435;DHT22;30138;20.964;105.830;2022-12-26T15:37:53;22.00;91.20
44435;DHT22;30138;20.964;105.830;2022-12-26T15:49:32;22.00;91.30
44435;DHT22;30138;20.964;105.830;2022-12-26T16:00:32;22.00;91.40
44435;DHT22;30138;20.964;105.830;2022-12-26T16:05:50;22.00;91.40
44435;DHT22;30138;20.964;105.830;2022-12-26T16:11:17;22.00;91.40
44435;DHT22;30138;20.964;105.830;2022-12-26T16:16:42;22.00;91.50
44435;DHT22;30138;20.964;105.830;2022-12-26T16:21:53;22.00;91.60
44435;DHT22;30138;20.964;105.830;2022-12-26T16:27:24;22.00;91.60
44435;DHT22;30138;20.964;105.830;2022-12-26T16:32:36;22.00;91.60
44435;DHT22;30138;20.964;105.830;2022-12-26T16:37:45;22.00;91.70
44435;DHT22;30138;20.964;105.830;2022-12-26T16:43:01;21.90;91.70
44435;DHT22;30138;20.964;105.830;2022-12-26T16:48:18;21.90;91.80
44435;DHT22;30138;20.964;105.830;2022-12-26T16:53:42;21.90;91.80
44435;DHT22;30138;20.964;105.830;2022-12-26T16:58:53;21.90;91.80
44435;DHT22;30138;20.964;105.830;2022-12-26T17:04:06;21.90;91.90
44435;DHT22;30138;20.964;105.830;2022-12-26T17:09:24;21.90;91.90
44435;DHT22;30138;20.964;105.830;2022-12-26T17:14:35;22.00;92.00
44435;DHT22;30138;20.964;105.830;2022-12-26T17:19:46;21.90;92.00
44435;DHT22;30138;20.964;105.830;2022-12-26T17:25:18;21.90;92.00
44435;DHT22;30138;20.964;105.830;2022-12-26T17:30:33;22.00;92.10
44435;DHT22;30138;20.964;105.830;2022-12-26T17:35:46;21.90;92.10
44435;DHT22;30138;20.964;105.830;2022-12-26T17:40:55;21.90;92.20
44435;DHT22;30138;20.964;105.830;2022-12-26T17:46:04;21.90;92.30
44435;DHT22;30138;20.964;105.830;2022-12-26T17:51:15;22.00;92.40
44435;DHT22;30138;20.964;105.830;2022-12-26T17:56:23;21.90;92.50
44435;DHT22;30138;20.964;105.830;2022-12-26T18:01:35;21.90;92.50
44435;DHT22;30138;20.964;105.830;2022-12-26T18:06:43;21.90;92.50
44435;DHT22;30138;20.964;105.830;2022-12-26T18:11:50;21.90;92.60
44435;DHT22;30138;20.964;105.830;2022-12-26T18:16:59;21.90;92.60
44435;DHT22;30138;20.964;105.830;2022-12-26T18:22:12;21.90;92.60
44435;DHT22;30138;20.964;105.830;2022-12-26T18:27:22;21.90;92.70
44435;DHT22;30138;20.964;105.830;2022-12-26T18:32:33;21.90;92.70
44435;DHT22;30138;20.964;105.830;2022-12-26T18:37:44;21.90;92.70
44435;DHT22;30138;20.964;105.830;2022-12-26T18:42:53;21.90;92.70
44435;DHT22;30138;20.964;105.830;2022-12-26T18:48:00;21.90;92.80
44435;DHT22;30138;20.964;105.830;2022-12-26T18:53:11;21.90;92.80
44435;DHT22;30138;20.964;105.830;2022-12-26T18:58:18;21.90;92.80
44435;DHT22;30138;20.964;105.830;2022-12-26T19:03:26;21.90;92.80
44435;DHT22;30138;20.964;105.830;2022-12-26T19:08:35;21.80;92.90
44435;DHT22;30138;20.964;105.830;2022-12-26T19:13:44;21.90;92.90
44435;DHT22;30138;20.964;105.830;2022-12-26T19:18:52;21.90;93.00
44435;DHT22;30138;20.964;105.830;2022-12-26T19:24:01;21.80;93.00
44435;DHT22;30138;20.964;105.830;2022-12-26T19:29:09;21.80;93.00
44435;DHT22;30138;20.964;105.830;2022-12-26T19:34:17;21.80;93.00
44435;DHT22;30138;20.964;105.830;2022-12-26T19:39:27;21.80;93.00
44435;DHT22;30138;20.964;105.830;2022-12-26T19:44:34;21.80;93.00
44435;DHT22;30138;20.964;105.830;2022-12-26T19:49:42;21.80;93.10
44435;DHT22;30138;20.964;105.830;2022-12-26T19:54:51;21.80;93.00
44435;DHT22;30138;20.964;105.830;2022-12-26T19:59:59;21.80;93.10
44435;DHT22;30138;20.964;105.830;2022-12-26T20:05:14;21.80;93.00
44435;DHT22;30138;20.964;105.830;2022-12-26T20:10:23;21.80;93.10
44435;DHT22;30138;20.964;105.830;2022-12-26T20:15:32;21.80;93.10
44435;DHT22;30138;20.964;105.830;2022-12-26T20:20:40;21.80;93.10
44435;DHT22;30138;20.964;105.830;2022-12-26T20:25:49;21.80;93.10
44435;DHT22;30138;20.964;105.830;2022-12-26T20:31:01;21.70;93.10
44435;DHT22;30138;20.964;105.830;2022-12-26T20:36:12;21.80;93.10
44435;DHT22;30138;20.964;105.830;2022-12-26T20:41:23;21.80;93.10
44435;DHT22;30138;20.964;105.830;2022-12-26T20:46:32;21.80;93.10
44435;DHT22;30138;20.964;105.830;2022-12-26T20:51:41;21.70;93.00
44435;DHT22;30138;20.964;105.830;2022-12-26T20:56:50;21.80;93.10
44435;DHT22;30138;20.964;105.830;2022-12-26T21:01:57;21.70;93.00
44435;DHT22;30138;20.964;105.830;2022-12-26T21:07:05;21.70;93.00
44435;DHT22;30138;20.964;105.830;2022-12-26T21:12:15;21.70;93.00
44435;DHT22;30138;20.964;105.830;2022-12-26T21:17:22;21.70;93.10
44435;DHT22;30138;20.964;105.830;2022-12-26T21:22:29;21.70;93.00
44435;DHT22;30138;20.964;105.830;2022-12-26T21:27:38;21.70;93.00
44435;DHT22;30138;20.964;105.830;2022-12-26T21:32:45;21.70;93.30
44435;DHT22;30138;20.964;105.830;2022-12-26T21:37:51;21.70;93.00
44435;DHT22;30138;20.964;105.830;2022-12-26T21:43:02;21.70;93.00
44435;DHT22;30138;20.964;105.830;2022-12-26T21:48:09;21.70;93.10
44435;DHT22;30138;20.964;105.830;2022-12-26T21:53:17;21.70;93.10
44435;DHT22;30138;20.964;105.830;2022-12-26T21:58:26;21.70;93.10
44435;DHT22;30138;20.964;105.830;2022-12-26T22:03:33;21.70;93.10
44435;DHT22;30138;20.964;105.830;2022-12-26T22:08:56;21.70;93.10
44435;DHT22;30138;20.964;105.830;2022-12-26T22:14:05;21.70;93.10
44435;DHT22;30138;20.964;105.830;2022-12-26T22:19:11;21.70;93.10
44435;DHT22;30138;20.964;105.830;2022-12-26T22:24:19;21.60;93.10
44435;DHT22;30138;20.964;105.830;2022-12-26T22:29:28;21.60;93.20
44435;DHT22;30138;20.964;105.830;2022-12-26T22:34:35;21.60;93.20
44435;DHT22;30138;20.964;105.830;2022-12-26T22:39:42;21.60;93.20
44435;DHT22;30138;20.964;105.830;2022-12-26T22:44:51;21.60;93.20
44435;DHT22;30138;20.964;105.830;2022-12-26T22:49:59;21.70;93.20
44435;DHT22;30138;20.964;105.830;2022-12-26T22:55:06;21.60;93.20
44435;DHT22;30138;20.964;105.830;2022-12-26T23:00:16;21.60;93.20
44435;DHT22;30138;20.964;105.830;2022-12-26T23:05:24;21.60;93.30
44435;DHT22;30138;20.964;105.830;2022-12-26T23:10:32;21.60;93.30
44435;DHT22;30138;20.964;105.830;2022-12-26T23:15:51;21.60;93.30
44435;DHT22;30138;20.964;105.830;2022-12-26T23:21:06;21.60;93.30
44435;DHT22;30138;20.964;105.830;2022-12-26T23:26:29;21.60;93.40
44435;DHT22;30138;20.964;105.830;2022-12-26T23:31:38;21.60;93.40
44435;DHT22;30138;20.964;105.830;2022-12-26T23:36:47;21.60;93.40
44435;DHT22;30138;20.964;105.830;2022-12-26T23:41:54;21.60;93.50
44435;DHT22;30138;20.964;105.830;2022-12-26T23:47:02;21.60;93.50
44435;DHT22;30138;20.964;105.830;2022-12-26T23:52:10;21.60;93.50
44435;DHT22;30138;20.964;105.830;2022-12-26T23:57:17;21.60;93.50
